VOI146 MMMX-MMGL
Flight info
| Callsign | VOI146 |
|---|---|
| Flight time | N/A |
| Altitude | 34000 |
| Route | OVAG3B/23R OVAGO UT123 IGSON IGSON1B |
| Aircraft | A320/M-SDE3FGHIRWY/LB1 |
Departure
| Time | N/A |
|---|---|
| Airport | Mexico City Benito Juárez International Airport (MMMX) |
Arrival
| Time | 2026-05-07 04:10 |
|---|---|
| Airport | Guadalajara International Airport (MMGL) |
| Time | Latitude | Longitude | Altitude | Speed | Heading |
|---|---|---|---|---|---|
| 2026-05-07 03:36 | 19.18745 | -100.11445 | 31616 ft | 403 kts | 264° |
| 2026-05-07 03:36 | 19.18772 | -100.14431 | 31683 ft | 411 kts | 275° |
| 2026-05-07 03:36 | 19.19311 | -100.17426 | 31808 ft | 419 kts | 285° |
| 2026-05-07 03:36 | 19.20242 | -100.20380 | 31922 ft | 426 kts | 287° |
| 2026-05-07 03:37 | 19.21202 | -100.23363 | 32106 ft | 430 kts | 287° |
| 2026-05-07 03:37 | 19.22160 | -100.26362 | 32541 ft | 428 kts | 286° |
| 2026-05-07 03:37 | 19.23106 | -100.29339 | 32962 ft | 426 kts | 286° |
| 2026-05-07 03:37 | 19.24044 | -100.32305 | 33457 ft | 424 kts | 286° |
| 2026-05-07 03:38 | 19.24979 | -100.35259 | 33854 ft | 423 kts | 286° |
| 2026-05-07 03:38 | 19.25913 | -100.38210 | 33970 ft | 422 kts | 286° |
| 2026-05-07 03:38 | 19.26845 | -100.41149 | 33991 ft | 421 kts | 286° |
| 2026-05-07 03:39 | 19.28695 | -100.46981 | 33953 ft | 420 kts | 286° |
| 2026-05-07 03:39 | 19.30555 | -100.52842 | 33956 ft | 420 kts | 286° |
| 2026-05-07 03:40 | 19.32406 | -100.58710 | 33936 ft | 420 kts | 286° |
| 2026-05-07 03:40 | 19.34257 | -100.64603 | 33935 ft | 427 kts | 286° |
| 2026-05-07 03:41 | 19.36155 | -100.70626 | 33968 ft | 433 kts | 286° |
| 2026-05-07 03:41 | 19.38128 | -100.76670 | 33963 ft | 435 kts | 287° |
| 2026-05-07 03:42 | 19.40235 | -100.82671 | 33967 ft | 435 kts | 288° |
| 2026-05-07 03:42 | 19.42353 | -100.88673 | 33971 ft | 435 kts | 288° |
| 2026-05-07 03:43 | 19.44430 | -100.94694 | 33972 ft | 435 kts | 287° |
| 2026-05-07 03:43 | 19.46485 | -101.00718 | 34012 ft | 435 kts | 287° |
| 2026-05-07 03:44 | 19.48543 | -101.06749 | 34010 ft | 435 kts | 287° |
| 2026-05-07 03:44 | 19.50594 | -101.12751 | 34006 ft | 436 kts | 287° |
| 2026-05-07 03:45 | 19.52660 | -101.18797 | 34003 ft | 436 kts | 287° |
| 2026-05-07 03:45 | 19.54725 | -101.24839 | 34006 ft | 436 kts | 287° |
| 2026-05-07 03:46 | 19.56790 | -101.30891 | 34033 ft | 436 kts | 287° |
| 2026-05-07 03:46 | 19.58854 | -101.36936 | 34040 ft | 436 kts | 287° |
| 2026-05-07 03:47 | 19.60901 | -101.42943 | 34042 ft | 436 kts | 287° |
| 2026-05-07 03:47 | 19.62962 | -101.48985 | 34053 ft | 436 kts | 287° |
| 2026-05-07 03:48 | 19.65014 | -101.55032 | 34042 ft | 436 kts | 287° |
| 2026-05-07 03:48 | 19.67072 | -101.61098 | 34030 ft | 438 kts | 287° |
| 2026-05-07 03:49 | 19.69130 | -101.67187 | 34021 ft | 439 kts | 287° |
| 2026-05-07 03:49 | 19.71190 | -101.73288 | 34039 ft | 439 kts | 287° |
| 2026-05-07 03:50 | 19.73233 | -101.79314 | 33685 ft | 428 kts | 287° |
| 2026-05-07 03:50 | 19.74257 | -101.82346 | 32486 ft | 442 kts | 287° |
| 2026-05-07 03:50 | 19.75301 | -101.85453 | 31488 ft | 451 kts | 287° |
| 2026-05-07 03:50 | 19.76361 | -101.88606 | 30611 ft | 456 kts | 287° |
| 2026-05-07 03:51 | 19.77436 | -101.91793 | 29721 ft | 460 kts | 287° |
| 2026-05-07 03:51 | 19.78522 | -101.95004 | 28726 ft | 464 kts | 287° |
| 2026-05-07 03:51 | 19.79614 | -101.98236 | 27698 ft | 467 kts | 287° |
| 2026-05-07 03:51 | 19.80713 | -102.01500 | 26647 ft | 471 kts | 287° |
| 2026-05-07 03:52 | 19.81803 | -102.04746 | 25621 ft | 475 kts | 287° |
| 2026-05-07 03:52 | 19.82919 | -102.08077 | 24538 ft | 479 kts | 287° |
| 2026-05-07 03:52 | 19.84039 | -102.11427 | 23405 ft | 484 kts | 287° |
| 2026-05-07 03:52 | 19.85170 | -102.14813 | 22028 ft | 489 kts | 287° |
| 2026-05-07 03:53 | 19.86316 | -102.18235 | 20698 ft | 493 kts | 288° |
| 2026-05-07 03:53 | 19.87463 | -102.21657 | 19688 ft | 490 kts | 288° |
| 2026-05-07 03:53 | 19.88603 | -102.25057 | 18800 ft | 486 kts | 288° |
| 2026-05-07 03:53 | 19.89733 | -102.28420 | 17901 ft | 481 kts | 289° |
| 2026-05-07 03:54 | 19.90852 | -102.31751 | 16964 ft | 475 kts | 289° |
| 2026-05-07 03:54 | 19.91943 | -102.35025 | 16217 ft | 466 kts | 289° |
| 2026-05-07 03:54 | 19.93002 | -102.38224 | 15806 ft | 450 kts | 289° |
| 2026-05-07 03:54 | 19.94033 | -102.41301 | 15461 ft | 435 kts | 291° |
| 2026-05-07 03:55 | 19.95470 | -102.44085 | 15106 ft | 425 kts | 306° |
| 2026-05-07 03:55 | 19.97292 | -102.46505 | 14826 ft | 413 kts | 309° |
| 2026-05-07 03:55 | 19.99071 | -102.48818 | 14705 ft | 396 kts | 309° |
| 2026-05-07 03:55 | 20.00786 | -102.51034 | 14600 ft | 380 kts | 309° |
| 2026-05-07 03:56 | 20.02434 | -102.53156 | 14475 ft | 365 kts | 309° |
| 2026-05-07 03:56 | 20.04003 | -102.55175 | 14368 ft | 353 kts | 309° |
| 2026-05-07 03:56 | 20.05539 | -102.57152 | 14236 ft | 341 kts | 309° |
| 2026-05-07 03:56 | 20.07025 | -102.59071 | 14139 ft | 331 kts | 308° |
| 2026-05-07 03:57 | 20.08466 | -102.60938 | 14032 ft | 322 kts | 308° |
| 2026-05-07 03:57 | 20.09865 | -102.62752 | 13917 ft | 313 kts | 309° |
| 2026-05-07 03:57 | 20.11232 | -102.64525 | 13807 ft | 305 kts | 308° |
| 2026-05-07 03:57 | 20.12560 | -102.66247 | 13685 ft | 297 kts | 308° |
| 2026-05-07 03:58 | 20.13858 | -102.67930 | 13556 ft | 289 kts | 308° |
| 2026-05-07 03:58 | 20.15116 | -102.69564 | 13420 ft | 282 kts | 308° |
| 2026-05-07 03:58 | 20.16345 | -102.71160 | 13287 ft | 275 kts | 307° |
| 2026-05-07 03:58 | 20.17550 | -102.72724 | 13165 ft | 272 kts | 308° |
| 2026-05-07 03:59 | 20.18742 | -102.74270 | 13041 ft | 270 kts | 308° |
| 2026-05-07 03:59 | 20.19927 | -102.75807 | 12855 ft | 267 kts | 308° |
| 2026-05-07 03:59 | 20.21104 | -102.77336 | 12637 ft | 266 kts | 309° |
| 2026-05-07 03:59 | 20.22267 | -102.78846 | 12344 ft | 275 kts | 309° |
| 2026-05-07 04:00 | 20.23556 | -102.80527 | 11989 ft | 305 kts | 308° |
| 2026-05-07 04:00 | 20.24910 | -102.82292 | 11616 ft | 309 kts | 308° |
| 2026-05-07 04:00 | 20.26269 | -102.84059 | 11243 ft | 308 kts | 308° |
| 2026-05-07 04:00 | 20.27629 | -102.85826 | 10852 ft | 305 kts | 308° |
| 2026-05-07 04:01 | 20.28955 | -102.87546 | 10481 ft | 297 kts | 308° |
| 2026-05-07 04:01 | 20.30252 | -102.89232 | 10133 ft | 291 kts | 308° |
| 2026-05-07 04:01 | 20.31525 | -102.90889 | 9779 ft | 286 kts | 307° |
| 2026-05-07 04:01 | 20.32772 | -102.92509 | 9445 ft | 277 kts | 308° |
| 2026-05-07 04:02 | 20.33949 | -102.94039 | 9359 ft | 257 kts | 308° |
| 2026-05-07 04:02 | 20.35039 | -102.95463 | 9274 ft | 242 kts | 307° |
| 2026-05-07 04:02 | 20.36081 | -102.96826 | 9171 ft | 233 kts | 307° |
| 2026-05-07 04:02 | 20.37069 | -102.98115 | 9063 ft | 223 kts | 308° |
| 2026-05-07 04:03 | 20.38036 | -102.99375 | 8991 ft | 216 kts | 307° |
| 2026-05-07 04:03 | 20.38973 | -103.00597 | 8880 ft | 211 kts | 308° |
| 2026-05-07 04:03 | 20.39806 | -103.01836 | 8800 ft | 203 kts | 297° |
| 2026-05-07 04:03 | 20.40415 | -103.03180 | 8784 ft | 201 kts | 294° |
| 2026-05-07 04:04 | 20.40989 | -103.04539 | 8786 ft | 199 kts | 293° |
| 2026-05-07 04:04 | 20.41554 | -103.05879 | 8777 ft | 192 kts | 294° |
| 2026-05-07 04:04 | 20.42075 | -103.07114 | 8719 ft | 176 kts | 294° |
| 2026-05-07 04:04 | 20.42572 | -103.08291 | 8557 ft | 173 kts | 294° |
| 2026-05-07 04:05 | 20.43070 | -103.09471 | 8367 ft | 174 kts | 294° |
| 2026-05-07 04:05 | 20.43567 | -103.10650 | 8168 ft | 173 kts | 293° |
| 2026-05-07 04:05 | 20.44056 | -103.11807 | 7969 ft | 170 kts | 293° |
| 2026-05-07 04:05 | 20.44542 | -103.12962 | 7923 ft | 171 kts | 294° |
| 2026-05-07 04:06 | 20.45031 | -103.14119 | 7727 ft | 171 kts | 294° |
| 2026-05-07 04:06 | 20.45514 | -103.15266 | 7543 ft | 168 kts | 294° |
| 2026-05-07 04:06 | 20.45989 | -103.16393 | 7361 ft | 166 kts | 294° |
| 2026-05-07 04:06 | 20.46464 | -103.17522 | 7185 ft | 167 kts | 294° |
| 2026-05-07 04:07 | 20.46938 | -103.18646 | 7002 ft | 166 kts | 295° |
| 2026-05-07 04:07 | 20.47409 | -103.19764 | 6825 ft | 165 kts | 293° |
| 2026-05-07 04:07 | 20.47874 | -103.20868 | 6654 ft | 166 kts | 294° |
| 2026-05-07 04:07 | 20.48346 | -103.21988 | 6469 ft | 165 kts | 294° |
| 2026-05-07 04:08 | 20.48806 | -103.23081 | 6306 ft | 153 kts | 293° |
| 2026-05-07 04:08 | 20.49231 | -103.24091 | 6145 ft | 147 kts | 292° |
| 2026-05-07 04:08 | 20.49647 | -103.25081 | 5991 ft | 146 kts | 294° |
| 2026-05-07 04:08 | 20.50062 | -103.26065 | 5778 ft | 141 kts | 292° |
| 2026-05-07 04:09 | 20.50463 | -103.27021 | 5591 ft | 140 kts | 292° |
| 2026-05-07 04:09 | 20.50867 | -103.27998 | 5361 ft | 146 kts | 295° |
| 2026-05-07 04:09 | 20.51294 | -103.29004 | 5147 ft | 150 kts | 293° |
| 2026-05-07 04:09 | 20.51719 | -103.29991 | 5029 ft | 133 kts | 292° |
| 2026-05-07 04:10 | 20.52038 | -103.30767 | 5030 ft | 95 kts | 294° |
| 2026-05-07 04:10 | 20.52263 | -103.31303 | 5031 ft | 66 kts | 294° |
| 2026-05-07 04:10 | 20.52421 | -103.31679 | 5027 ft | 46 kts | 294° |
| 2026-05-07 04:10 | 20.52507 | -103.31884 | 5027 ft | 15 kts | 294° |
| 2026-05-07 04:11 | 20.52542 | -103.31934 | 5030 ft | 10 kts | 338° |
| 2026-05-07 04:11 | 20.52611 | -103.31909 | 5030 ft | 8 kts | 30° |
| 2026-05-07 04:11 | 20.52666 | -103.31885 | 5030 ft | 9 kts | 22° |
| 2026-05-07 04:11 | 20.52730 | -103.31857 | 5030 ft | 12 kts | 24° |
| 2026-05-07 04:12 | 20.52806 | -103.31800 | 5030 ft | 14 kts | 74° |
| 2026-05-07 04:12 | 20.52800 | -103.31685 | 5029 ft | 16 kts | 95° |
| 2026-05-07 04:12 | 20.52790 | -103.31559 | 5029 ft | 18 kts | 97° |
| 2026-05-07 04:12 | 20.52771 | -103.31473 | 5025 ft | 19 kts | 109° |
| 2026-05-07 04:13 | 20.52717 | -103.31341 | 5027 ft | 20 kts | 114° |
| 2026-05-07 04:13 | 20.52660 | -103.31201 | 5029 ft | 21 kts | 112° |
| 2026-05-07 04:13 | 20.52598 | -103.31055 | 5029 ft | 22 kts | 114° |
| 2026-05-07 04:13 | 20.52533 | -103.30900 | 5026 ft | 23 kts | 114° |
| 2026-05-07 04:14 | 20.52464 | -103.30739 | 5029 ft | 25 kts | 114° |
| 2026-05-07 04:14 | 20.52392 | -103.30568 | 5029 ft | 26 kts | 112° |
| 2026-05-07 04:14 | 20.52323 | -103.30389 | 5029 ft | 27 kts | 112° |
| 2026-05-07 04:14 | 20.52246 | -103.30206 | 5029 ft | 27 kts | 116° |
| 2026-05-07 04:15 | 20.52199 | -103.30077 | 5029 ft | 13 kts | 67° |
| 2026-05-07 04:15 | 20.52280 | -103.30038 | 5029 ft | 13 kts | 19° |
| 2026-05-07 04:15 | 20.52369 | -103.29998 | 5029 ft | 14 kts | 20° |
| 2026-05-07 04:15 | 20.52403 | -103.29986 | 5029 ft | 0 kts | 19° |